Weather at Kirriemuir Farm Strip

Public forecast

Using degrees Celsius for public forecast. Weather courtesy of forecast.io.

Closest aviation weather report (METAR) to Kirriemuir Farm Strip

Report is more than 2 hours old.

Closest report is Dundee Airport, 11.9 nm (22.0 km) S. Retrieved 2021/07/27 19:50 UTC (5 hours ago):

EGPN 271950Z 10007KT 5000 BR BKN003 17/16 Q1005

Closest aviation forecast (TAF) to Kirriemuir Farm Strip

Forecast is more than 12 hours old.

Closest forecast is Dundee Airport, 11.9 nm (22.0 km) S. Retrieved 2019/01/15 18:54 UTC (3 years ago):

TAF TAF EGPN 151750Z 1518/1621 CNL